createdAt,value
2017-11-23T00:00:20.943Z,68.69
2017-11-23T00:01:01.341Z,69.07
2017-11-23T00:01:41.630Z,69.07
2017-11-23T00:02:22.011Z,69.26
2017-11-23T00:03:02.620Z,69.74
2017-11-23T00:03:43.069Z,69.45
2017-11-23T00:04:23.675Z,69.17
2017-11-23T00:05:04.048Z,68.88
2017-11-23T00:05:44.484Z,68.88
2017-11-23T00:06:24.847Z,68.88
2017-11-23T00:07:05.200Z,68.98
2017-11-23T00:07:45.649Z,68.78
2017-11-23T00:08:26.210Z,69.54
2017-11-23T00:09:06.638Z,69.45
2017-11-23T00:09:47.153Z,69.54
2017-11-23T00:10:27.613Z,69.54
2017-11-23T00:11:08.970Z,68.88
2017-11-23T00:11:49.340Z,69.26
2017-11-23T00:12:29.676Z,69.26
2017-11-23T00:13:10.678Z,68.78
2017-11-23T00:13:51.296Z,69.17
2017-11-23T00:14:31.662Z,69.26
2017-11-23T00:15:12.023Z,69.32
2017-11-23T00:15:52.484Z,69.07
2017-11-23T00:16:33.080Z,69.26
2017-11-23T00:17:13.317Z,69.26
2017-11-23T00:17:53.707Z,69.45
2017-11-23T00:18:34.215Z,69.17
2017-11-23T00:19:14.539Z,69.35
2017-11-23T00:19:55.003Z,69.35
2017-11-23T00:20:35.487Z,69.45
2017-11-23T00:21:15.908Z,69.17
2017-11-23T00:21:56.248Z,69.35
2017-11-23T00:22:36.894Z,69.45
2017-11-23T00:23:18.247Z,69.54
2017-11-23T00:24:00.682Z,70.31
2017-11-23T00:24:41.494Z,69.35
2017-11-23T00:25:22.109Z,70.21
2017-11-23T00:26:04.779Z,69.83
2017-11-23T00:26:45.924Z,69.74
2017-11-23T00:27:26.821Z,69.64
2017-11-23T00:28:07.603Z,70.12
2017-11-23T00:28:48.292Z,69.54
2017-11-23T00:29:29.676Z,69.45
2017-11-23T00:31:24.163Z,69.35
2017-11-23T00:32:16.056Z,69.64
2017-11-23T00:33:08.137Z,69.35
2017-11-23T00:33:49.547Z,69.35
2017-11-23T00:34:29.917Z,69.39
2017-11-23T00:35:10.304Z,69.2
2017-11-23T00:35:50.660Z,69.58
2017-11-23T00:36:31.117Z,69.29
2017-11-23T00:37:11.479Z,68.63
2017-11-23T00:37:51.922Z,68.72
2017-11-23T00:38:32.516Z,68.38
2017-11-23T00:39:12.935Z,67.52
2017-11-23T00:39:53.344Z,67.33
2017-11-23T00:40:33.742Z,66.75
2017-11-23T00:41:14.154Z,66.18
2017-11-23T00:41:54.523Z,65.89
2017-11-23T00:42:34.930Z,66.28
2017-11-23T00:43:15.340Z,66.28
2017-11-23T00:43:55.769Z,66.28
2017-11-23T00:44:36.143Z,66.75
2017-11-23T00:45:16.782Z,66.75
2017-11-23T00:45:57.204Z,66.66
2017-11-23T00:46:37.627Z,67.33
2017-11-23T00:47:18.031Z,66.66
2017-11-23T00:47:58.531Z,66.63
2017-11-23T00:48:39.090Z,67.1
2017-11-23T00:49:19.518Z,67
2017-11-23T00:49:59.976Z,66.72
2017-11-23T00:50:40.438Z,67.77
2017-11-23T00:51:20.832Z,67.29
2017-11-23T00:52:01.346Z,67.48
2017-11-23T00:52:41.776Z,67.48
2017-11-23T00:53:22.309Z,67.29
2017-11-23T00:54:02.717Z,67.48
2017-11-23T00:54:43.154Z,68.24
2017-11-23T00:55:23.571Z,67.64
2017-11-23T00:56:03.927Z,68.88
2017-11-23T00:56:44.415Z,68.88
2017-11-23T00:57:24.766Z,69.54
2017-11-23T00:58:05.226Z,69.35
2017-11-23T00:58:45.738Z,69.26
2017-11-23T00:59:26.104Z,69.35
2017-11-23T01:00:06.508Z,69.26
2017-11-23T01:00:46.887Z,69.54
2017-11-23T01:01:27.327Z,70.31
2017-11-23T01:02:07.755Z,70.21
2017-11-23T01:02:48.148Z,70.31
2017-11-23T01:03:28.698Z,70.02
2017-11-23T01:04:09.099Z,70.5
2017-11-23T01:04:49.465Z,70.31
2017-11-23T01:05:29.925Z,69.74
2017-11-23T01:06:10.417Z,70.31
2017-11-23T01:06:50.828Z,70.88
2017-11-23T01:07:31.343Z,70.97
2017-11-23T01:08:11.834Z,70.5
2017-11-23T01:08:52.185Z,70.31
2017-11-23T01:09:32.580Z,70.4
2017-11-23T01:10:13.072Z,70.12
2017-11-23T01:10:53.564Z,70.21
2017-11-23T01:11:34.128Z,70.75
2017-11-23T01:12:14.687Z,70.4
2017-11-23T01:12:55.045Z,70.65
2017-11-23T01:13:35.521Z,71.22
2017-11-23T01:14:15.962Z,71.7
2017-11-23T01:14:56.320Z,71.61
2017-11-23T01:15:36.720Z,71.42
2017-11-23T01:16:17.091Z,71.32
2017-11-23T01:16:57.478Z,71.51
2017-11-23T01:17:37.938Z,71.42
2017-11-23T01:18:18.365Z,71.98
2017-11-23T01:18:58.887Z,72.08
2017-11-23T01:19:39.413Z,71.64
2017-11-23T01:20:19.974Z,71.73
2017-11-23T01:21:00.411Z,71.45
2017-11-23T01:21:40.733Z,71.45
2017-11-23T01:22:21.245Z,71.17
2017-11-23T01:23:01.719Z,70.94
2017-11-23T01:23:42.072Z,69.93
2017-11-23T01:24:22.546Z,70.31
2017-11-23T01:25:02.990Z,70.21
2017-11-23T01:25:43.351Z,70.31
2017-11-23T01:26:23.779Z,69.93
2017-11-23T01:27:04.180Z,69.26
2017-11-23T01:27:44.614Z,69.45
2017-11-23T01:28:24.987Z,69.45
2017-11-23T01:29:05.556Z,69.17
2017-11-23T01:29:45.927Z,69.17
2017-11-23T01:30:26.361Z,68.88
2017-11-23T01:31:06.815Z,68.78
2017-11-23T01:31:47.223Z,68.59
2017-11-23T01:32:27.632Z,68.59
2017-11-23T01:33:08.007Z,68.59
2017-11-23T01:33:48.423Z,68.3
2017-11-23T01:34:28.855Z,68.21
2017-11-23T01:35:09.244Z,67.83
2017-11-23T01:35:49.705Z,68.59
2017-11-23T01:36:30.108Z,68.63
2017-11-23T01:37:10.461Z,68.34
2017-11-23T01:37:50.842Z,68.72
2017-11-23T01:38:31.257Z,69.01
2017-11-23T01:39:11.740Z,69.26
2017-11-23T01:39:52.228Z,69.26
2017-11-23T01:40:32.549Z,69.35
2017-11-23T01:41:12.944Z,69.54
2017-11-23T01:41:53.405Z,69.74
2017-11-23T01:42:33.688Z,69.54
2017-11-23T01:43:14.137Z,69.93
2017-11-23T01:43:54.702Z,69.64
2017-11-23T01:44:35.030Z,69.83
2017-11-23T01:45:15.713Z,69.83
2017-11-23T01:45:56.001Z,69.64
2017-11-23T01:46:36.479Z,70.21
2017-11-23T01:47:16.807Z,69.93
2017-11-23T01:47:57.228Z,69.74
2017-11-23T01:48:37.661Z,69.64
2017-11-23T01:49:18.123Z,69.83
2017-11-23T01:49:58.607Z,69.93
2017-11-23T01:50:39.088Z,70.31
2017-11-23T01:51:19.491Z,70.02
2017-11-23T01:51:59.850Z,70.31
2017-11-23T01:52:40.270Z,70.31
2017-11-23T01:53:20.725Z,69.83
2017-11-23T01:54:01.086Z,69.64
2017-11-23T01:54:41.420Z,69.83
2017-11-23T01:55:21.924Z,69.64
2017-11-23T01:58:43.879Z,68.59
2017-11-23T01:59:27.192Z,68.98
2017-11-23T02:00:07.535Z,68.72
2017-11-23T02:00:48.047Z,69.01
2017-11-23T02:01:28.394Z,69.1
2017-11-23T02:02:08.973Z,69.2
2017-11-23T02:04:29.614Z,69.58
2017-11-23T02:05:20.279Z,69.39
2017-11-23T02:07:15.518Z,70.12
2017-11-23T02:09:16.489Z,70.78
2017-11-23T02:11:13.034Z,71.45
2017-11-23T02:11:54.986Z,71.73
2017-11-23T02:12:35.602Z,71.45
2017-11-23T02:13:16.155Z,71.83
2017-11-23T02:13:57.943Z,71.55
2017-11-23T02:14:41.233Z,71.93
2017-11-23T02:15:21.689Z,71.83
2017-11-23T02:16:02.640Z,71.26
2017-11-23T02:16:43.070Z,71.93
2017-11-23T02:17:23.509Z,71.45
2017-11-23T02:18:04.338Z,71.45
2017-11-23T02:18:44.746Z,71.45
2017-11-23T02:19:25.695Z,71.83
2017-11-23T02:20:06.451Z,71.64
2017-11-23T02:20:47.254Z,71.93
2017-11-23T02:21:27.682Z,71.45
2017-11-23T02:22:10.216Z,71.36
2017-11-23T02:22:53.418Z,71.45
2017-11-23T02:23:34.142Z,71.45
2017-11-23T02:24:14.468Z,71.83
2017-11-23T02:24:55.740Z,71.55
2017-11-23T02:25:36.205Z,71.73
2017-11-23T02:26:16.605Z,71.55
2017-11-23T02:26:57.085Z,70.97
2017-11-23T02:27:37.562Z,71.07
2017-11-23T02:28:18.911Z,70.59
2017-11-23T02:28:59.273Z,70.97
2017-11-23T02:29:40.536Z,70.88
2017-11-23T02:30:20.938Z,70.21
2017-11-23T02:31:01.382Z,70.4
2017-11-23T02:31:41.724Z,70.31
2017-11-23T02:32:22.283Z,69.93
2017-11-23T02:33:04.621Z,70.69
2017-11-23T02:33:45.548Z,70.69
2017-11-23T02:34:26.260Z,70.78
2017-11-23T02:35:07.336Z,70.78
2017-11-23T02:35:47.932Z,70.69
2017-11-23T02:36:28.527Z,70.59
2017-11-23T02:37:08.925Z,70.78
2017-11-23T02:37:49.741Z,70.78
2017-11-23T02:38:30.241Z,70.69
2017-11-23T02:39:10.752Z,70.69
2017-11-23T02:39:51.332Z,71.07
2017-11-23T02:40:33.909Z,70.88
2017-11-23T02:41:14.479Z,71.07
2017-11-23T02:41:56.706Z,71.07
2017-11-23T02:42:37.522Z,70.4
2017-11-23T02:43:20.467Z,70.31
2017-11-23T02:44:01.986Z,70.02
2017-11-23T02:44:44.944Z,70.02
2017-11-23T02:45:38.887Z,70.12
2017-11-23T02:46:20.326Z,70.21
2017-11-23T02:47:00.704Z,70.21
2017-11-23T02:47:41.260Z,69.35
2017-11-23T02:48:23.358Z,69.54
2017-11-23T02:49:03.406Z,69.54
2017-11-23T02:49:43.803Z,69.74
2017-11-23T02:50:24.239Z,69.54
2017-11-23T02:51:04.657Z,69.64
2017-11-23T02:51:47.901Z,69.83
2017-11-23T02:52:29.744Z,69.68
2017-11-23T02:53:10.184Z,69.87
2017-11-23T02:53:53.111Z,69.54
2017-11-23T02:54:33.730Z,69.87
2017-11-23T02:55:15.946Z,69.87
2017-11-23T02:55:59.448Z,70.25
2017-11-23T02:56:42.191Z,69.96
2017-11-23T02:59:02.917Z,69.39
2017-11-23T02:59:55.302Z,69.48
2017-11-23T03:00:48.441Z,69.77
2017-11-23T03:01:30.651Z,69.58
2017-11-23T03:02:11.065Z,70.34
2017-11-23T03:02:51.521Z,70.34
2017-11-23T03:03:31.952Z,70.59
2017-11-23T03:04:12.320Z,70.78
2017-11-23T03:04:52.733Z,70.88
2017-11-23T03:05:33.193Z,71.55
2017-11-23T03:06:13.652Z,71.36
2017-11-23T03:06:54.126Z,71.36
2017-11-23T03:07:34.569Z,71.83
2017-11-23T03:08:14.999Z,72.02
2017-11-23T03:08:55.430Z,72.12
2017-11-23T03:09:35.863Z,72.02
2017-11-23T03:10:16.255Z,72.02
2017-11-23T03:10:56.708Z,72.21
2017-11-23T03:11:37.117Z,72.21
2017-11-23T03:12:17.615Z,72.5
2017-11-23T03:12:57.957Z,72.41
2017-11-23T03:13:38.317Z,72.5
2017-11-23T03:14:18.767Z,72.69
2017-11-23T03:14:59.181Z,72.12
2017-11-23T03:15:39.625Z,71.93
2017-11-23T03:16:20.092Z,72.69
2017-11-23T03:17:00.463Z,72.5
2017-11-23T03:17:40.773Z,72.6
2017-11-23T03:18:21.210Z,72.5
2017-11-23T03:19:01.596Z,72.5
2017-11-23T03:19:42.045Z,72.78
2017-11-23T03:20:22.478Z,72.78
2017-11-23T03:21:02.880Z,72.88
2017-11-23T03:21:43.293Z,72.6
2017-11-23T03:22:23.612Z,72.5
2017-11-23T03:23:03.976Z,72.6
2017-11-23T03:23:44.692Z,72.31
2017-11-23T03:24:25.022Z,72.21
2017-11-23T03:25:05.617Z,72.02
2017-11-23T03:25:48.845Z,72.31
2017-11-23T03:26:29.205Z,72.12
2017-11-23T03:27:09.655Z,72.02
2017-11-23T03:27:50.460Z,71.64
2017-11-23T03:28:32.989Z,71.64
2017-11-23T03:29:14.280Z,71.93
2017-11-23T03:29:55.849Z,71.73
2017-11-23T03:30:36.287Z,71.96
2017-11-23T03:31:16.780Z,71.36
2017-11-23T03:32:00.208Z,71.77
2017-11-23T03:32:41.057Z,71.96
2017-11-23T03:33:21.293Z,71.3
2017-11-23T03:34:01.681Z,71.48
2017-11-23T03:34:42.316Z,71.77
2017-11-23T03:35:23.911Z,71.87
2017-11-23T03:36:05.317Z,72.06
2017-11-23T03:36:46.579Z,71.58
2017-11-23T03:37:26.922Z,71.58
2017-11-23T03:38:07.547Z,72.16
2017-11-23T03:38:48.018Z,72.06
2017-11-23T03:39:28.422Z,71.68
2017-11-23T03:40:09.314Z,71.96
2017-11-23T03:40:49.660Z,71.96
2017-11-23T03:41:30.183Z,72.34
2017-11-23T03:42:10.611Z,72.06
2017-11-23T03:42:51.025Z,72.06
2017-11-23T03:43:31.872Z,72.16
2017-11-23T03:44:12.288Z,72.25
2017-11-23T03:44:56.225Z,72.06
2017-11-23T03:45:36.610Z,72.06
2017-11-23T03:46:20.181Z,72.25
2017-11-23T03:47:00.713Z,72.34
2017-11-23T03:47:43.882Z,72.06
2017-11-23T03:48:27.825Z,72.06
2017-11-23T03:49:08.743Z,72.06
2017-11-23T03:49:50.054Z,72.34
2017-11-23T03:50:30.295Z,72.06
2017-11-23T03:51:10.938Z,72.16
2017-11-23T03:51:51.442Z,72.06
2017-11-23T03:52:31.801Z,71.87
2017-11-23T03:53:12.256Z,72.16
2017-11-23T03:53:52.733Z,72.06
2017-11-23T03:54:47.965Z,72.06
2017-11-23T03:55:28.255Z,71.96
2017-11-23T03:56:08.704Z,71.87
2017-11-23T03:56:48.972Z,72.16
2017-11-23T03:57:29.680Z,72.16
2017-11-23T03:58:10.040Z,72.25
2017-11-23T03:58:50.554Z,72.72
2017-11-23T03:59:30.950Z,72.63
2017-11-23T04:00:11.407Z,72.82
2017-11-23T04:00:51.810Z,72.82
2017-11-23T04:01:32.207Z,72.63
2017-11-23T04:02:12.670Z,72.72
2017-11-23T04:02:53.096Z,72.72
2017-11-23T04:03:33.457Z,72.72
2017-11-23T04:41:46.793Z,74.5
2017-11-23T04:42:28.529Z,74.21
2017-11-23T04:43:08.953Z,74.69
2017-11-23T04:43:49.402Z,74.6
2017-11-23T04:44:29.758Z,74.4
2017-11-23T04:45:10.235Z,74.31
2017-11-23T04:45:50.504Z,74.12
2017-11-23T04:46:30.890Z,74.12
2017-11-23T04:47:11.370Z,73.74
2017-11-23T04:47:51.741Z,73.65
2017-11-23T04:48:32.137Z,73.65
2017-11-23T04:49:12.493Z,73.07
2017-11-23T04:49:52.889Z,73.07
2017-11-23T04:50:33.337Z,73.45
2017-11-23T04:51:13.724Z,73.83
2017-11-23T04:51:54.026Z,73.55
2017-11-23T04:52:34.540Z,73.68
2017-11-23T04:53:17.838Z,72.72
2017-11-23T04:53:58.249Z,73.21
2017-11-23T04:54:38.625Z,73.11
2017-11-23T04:55:19.040Z,73.11
2017-11-23T04:55:59.431Z,73.49
2017-11-23T04:56:39.925Z,73.68
2017-11-23T04:57:21.008Z,74.44
2017-11-23T04:58:01.401Z,74.16
2017-11-23T04:58:41.811Z,74.12
2017-11-23T04:59:22.262Z,74.35
2017-11-23T05:00:02.656Z,74.54
2017-11-23T05:00:43.038Z,74.44
2017-11-23T05:01:23.412Z,74.35
2017-11-23T05:02:04.380Z,74.25
2017-11-23T05:02:44.261Z,74.06
2017-11-23T05:03:24.689Z,74.06
2017-11-23T05:04:05.506Z,74.25
2017-11-23T05:04:46.079Z,74.06
2017-11-23T05:05:26.298Z,74.35
2017-11-23T05:06:06.761Z,74.25
2017-11-23T05:06:47.210Z,74.44
2017-11-23T05:07:27.613Z,74.35
2017-11-23T05:08:07.999Z,74.44
2017-11-23T05:08:48.758Z,74.44
2017-11-23T05:09:29.085Z,74.44
2017-11-23T05:10:09.430Z,74.44
2017-11-23T05:10:49.806Z,74.44
2017-11-23T05:11:30.266Z,74.44
2017-11-23T05:12:10.716Z,74.63
2017-11-23T05:12:51.245Z,74.44
2017-11-23T05:13:31.593Z,75.11
2017-11-23T05:14:12.007Z,74.82
2017-11-23T05:14:53.019Z,75.01
2017-11-23T05:15:33.374Z,75.2
2017-11-23T05:16:13.741Z,75.2
2017-11-23T05:16:54.169Z,75.11
2017-11-23T05:17:34.534Z,75.59
2017-11-23T05:18:14.957Z,75.4
2017-11-23T05:18:55.553Z,75.01
2017-11-23T05:19:35.856Z,75.01
2017-11-23T05:20:17.577Z,75.3
2017-11-23T05:20:57.928Z,75.11
2017-11-23T05:21:38.268Z,75.2
2017-11-23T05:22:18.744Z,75.2
2017-11-23T05:22:59.054Z,75.01
2017-11-23T05:23:40.010Z,75.01
2017-11-23T05:24:20.590Z,75.07
2017-11-23T05:25:00.926Z,75.2
2017-11-23T05:25:41.380Z,75.3
2017-11-23T05:26:21.789Z,75.16
2017-11-23T05:27:02.165Z,75.07
2017-11-23T05:27:42.567Z,75.2
2017-11-23T05:28:22.944Z,75.2
2017-11-23T05:29:03.341Z,75.4
2017-11-23T05:29:43.728Z,75.3
2017-11-23T05:30:25.133Z,75.2
2017-11-23T05:31:05.676Z,75.01
2017-11-23T05:31:45.969Z,75.3
2017-11-23T05:32:26.933Z,75.11
2017-11-23T05:33:07.346Z,75.3
2017-11-23T05:33:47.689Z,75.2
2017-11-23T05:34:28.161Z,75.4
2017-11-23T05:35:09.445Z,75.01
2017-11-23T05:35:49.913Z,75.11
2017-11-23T05:36:30.315Z,75.11
2017-11-23T05:37:10.688Z,74.82
2017-11-23T05:37:51.574Z,75.11
2017-11-23T05:38:32.046Z,74.63
2017-11-23T05:39:12.478Z,74.82
2017-11-23T05:39:52.803Z,74.44
2017-11-23T05:40:34.107Z,74.44
2017-11-23T05:41:14.609Z,74.25
2017-11-23T05:41:54.965Z,74.44
2017-11-23T05:42:35.597Z,74.63
2017-11-23T05:43:16.123Z,74.63
2017-11-23T05:43:56.569Z,74.92
2017-11-23T05:44:36.930Z,74.25
2017-11-23T05:45:18.289Z,74.25
2017-11-23T05:45:59.702Z,73.96
2017-11-23T05:46:40.171Z,74.16
2017-11-23T05:47:20.572Z,73.68
2017-11-23T05:48:01.762Z,73.77
2017-11-23T05:48:41.881Z,73.96
2017-11-23T05:49:22.350Z,73.49
2017-11-23T05:50:02.724Z,73.3
2017-11-23T05:50:43.241Z,73.58
2017-11-23T05:51:23.737Z,73.3
2017-11-23T05:52:04.153Z,73.11
2017-11-23T05:52:44.626Z,73.01
2017-11-23T05:53:25.007Z,72.96
2017-11-23T05:55:26.950Z,73.14
2017-11-23T05:56:07.971Z,73.21
2017-11-23T05:56:48.497Z,73.21
2017-11-23T05:57:29.054Z,73.24
2017-11-23T05:59:53.224Z,73.14
2017-11-23T06:00:34.207Z,73.14
2017-11-23T06:01:14.632Z,72.86
2017-11-23T06:01:55.100Z,72.76
2017-11-23T06:02:35.709Z,72.67
2017-11-23T06:03:17.017Z,73.14
2017-11-23T06:03:58.050Z,72.48
2017-11-23T06:04:38.405Z,72.67
2017-11-23T06:05:20.413Z,72.96
2017-11-23T06:06:00.642Z,72.48
2017-11-23T06:06:41.047Z,72.57
2017-11-23T06:07:21.606Z,72.57
2017-11-23T06:08:01.952Z,72.09
2017-11-23T06:08:44.247Z,72.19
2017-11-23T06:09:25.510Z,71.62
2017-11-23T06:10:06.503Z,72.09
2017-11-23T06:10:46.748Z,71.62
2017-11-23T06:11:27.255Z,71.52
2017-11-23T06:12:07.611Z,71.33
2017-11-23T06:12:48.075Z,71.72
2017-11-23T06:13:28.672Z,70.98
2017-11-23T06:14:09.212Z,70.57
2017-11-23T06:14:49.508Z,70.89
2017-11-23T06:15:30.941Z,70.51
2017-11-23T06:16:11.249Z,70.51
2017-11-23T06:16:51.792Z,70.42
2017-11-23T06:17:32.265Z,70.42
2017-11-23T06:18:13.378Z,70.22
2017-11-23T06:18:53.800Z,70.42
2017-11-23T06:19:34.380Z,70.42
2017-11-23T06:20:14.868Z,70.03
2017-11-23T06:20:55.842Z,69.84
2017-11-23T06:21:38.104Z,69.56
2017-11-23T06:22:18.460Z,69.93
2017-11-23T06:23:00.325Z,69.56
2017-11-23T06:23:41.819Z,69.46
2017-11-23T06:24:25.565Z,69.56
2017-11-23T06:25:06.004Z,69.46
2017-11-23T06:25:47.600Z,69.37
2017-11-23T06:26:28.248Z,68.88
2017-11-23T06:27:08.952Z,68.88
2017-11-23T06:27:51.343Z,68.79
2017-11-23T06:28:31.422Z,69.68
2017-11-23T06:29:12.435Z,69.21
2017-11-23T06:29:52.699Z,69.02
2017-11-23T06:30:33.118Z,69.08
2017-11-23T06:31:13.771Z,69.31
2017-11-23T06:31:54.317Z,68.92
2017-11-23T06:32:35.864Z,69.21
2017-11-23T06:33:17.366Z,68.88
2017-11-23T06:33:58.273Z,69.21
2017-11-23T06:34:42.540Z,69.27
2017-11-23T06:35:24.950Z,69.31
2017-11-23T06:36:05.816Z,69.27
2017-11-23T06:36:46.995Z,69.02
2017-11-23T06:37:27.753Z,69.02
2017-11-23T06:38:09.373Z,69.02
2017-11-23T06:38:50.445Z,68.82
2017-11-23T06:39:30.982Z,68.98
2017-11-23T06:40:11.587Z,69.02
2017-11-23T06:40:53.658Z,68.92
2017-11-23T06:41:33.959Z,69.02
2017-11-23T06:42:14.496Z,69.11
2017-11-23T06:42:56.468Z,68.92
2017-11-23T06:43:38.096Z,68.82
2017-11-23T06:44:19.954Z,68.63
2017-11-23T06:45:00.616Z,69.11
2017-11-23T06:45:42.160Z,69.11
2017-11-23T06:46:22.795Z,69.11
2017-11-23T06:47:04.057Z,69.31
2017-11-23T06:47:45.959Z,69.21
2017-11-23T06:48:28.596Z,69.02
2017-11-23T06:49:09.910Z,69.02
2017-11-23T06:49:51.188Z,69.02
2017-11-23T06:50:35.723Z,69.11
2017-11-23T06:51:16.313Z,69.02
2017-11-23T06:51:59.624Z,69.31
2017-11-23T06:52:40.373Z,69.68
2017-11-23T06:53:21.253Z,69.49
2017-11-23T06:55:54.667Z,69.02
2017-11-23T06:56:44.423Z,68.92
2017-11-23T06:57:25.208Z,69.31
2017-11-23T06:58:06.200Z,69.49
2017-11-23T06:58:47.874Z,69.59
2017-11-23T06:59:28.644Z,69.4
2017-11-23T07:00:09.323Z,69.59
2017-11-23T07:00:49.857Z,69.49
2017-11-23T07:01:30.771Z,69.59
2017-11-23T07:02:12.286Z,69.59
2017-11-23T07:02:52.537Z,69.68
2017-11-23T07:03:33.203Z,69.59
2017-11-23T07:04:13.627Z,69.93
2017-11-23T07:04:54.235Z,69.87
2017-11-23T07:05:34.403Z,69.87
2017-11-23T07:06:14.932Z,70.16
2017-11-23T07:06:55.355Z,69.97
2017-11-23T07:07:39.839Z,69.78
2017-11-23T07:08:23.987Z,69.97
2017-11-23T07:09:05.531Z,69.65
2017-11-23T07:09:46.535Z,69.87
2017-11-23T07:10:26.968Z,69.97
2017-11-23T07:12:44.550Z,69.4
2017-11-23T07:14:35.578Z,69.68
2017-11-23T07:15:15.743Z,69.68
2017-11-23T07:15:56.614Z,69.68
2017-11-23T07:16:37.875Z,69.4
2017-11-23T07:17:18.287Z,69.49
2017-11-23T07:17:58.829Z,69.49
2017-11-23T07:18:39.453Z,69.02
2017-11-23T07:19:20.043Z,69.49
2017-11-23T07:20:00.588Z,69.68
2017-11-23T07:20:41.070Z,69.31
2017-11-23T07:21:22.412Z,69.49
2017-11-23T07:22:02.768Z,69.49
2017-11-23T07:22:43.193Z,69.59
2017-11-23T07:23:24.696Z,69.49
2017-11-23T07:24:05.105Z,69.59
2017-11-23T07:24:46.131Z,69.49
2017-11-23T07:25:26.581Z,69.68
2017-11-23T07:26:07.435Z,69.49
2017-11-23T07:26:48.235Z,69.59
2017-11-23T07:27:30.041Z,69.59
2017-11-23T07:28:11.106Z,69.31
2017-11-23T07:28:51.691Z,68.92
2017-11-23T07:29:32.620Z,69.68
2017-11-23T07:30:13.746Z,69.59
2017-11-23T07:30:54.539Z,68.82
2017-11-23T07:31:34.925Z,68.82
2017-11-23T07:32:15.539Z,69.31
2017-11-23T07:32:55.915Z,69.11
2017-11-23T07:33:36.480Z,68.82
2017-11-23T07:34:16.897Z,68.54
2017-11-23T07:34:57.493Z,68.44
2017-11-23T07:35:41.995Z,68.67
2017-11-23T07:36:24.516Z,68.86
2017-11-23T07:37:04.988Z,68.76
2017-11-23T07:37:45.569Z,68.67
2017-11-23T07:38:26.132Z,68.19
2017-11-23T07:39:06.849Z,67.81
2017-11-23T07:39:47.341Z,68
2017-11-23T07:40:28.250Z,68.1
2017-11-23T07:41:09.177Z,68.29
2017-11-23T07:41:49.661Z,68
2017-11-23T07:42:30.097Z,68.29
2017-11-23T07:43:10.944Z,67.81
2017-11-23T07:43:51.945Z,68.19
2017-11-23T07:44:32.993Z,68.19
2017-11-23T07:45:14.106Z,68
2017-11-23T07:45:54.659Z,68.29
2017-11-23T07:46:35.368Z,68.19
2017-11-23T07:47:16.611Z,68.1
2017-11-23T07:47:58.014Z,68.29
2017-11-23T07:48:38.007Z,68.19
2017-11-23T07:49:18.542Z,68
2017-11-23T07:49:59.232Z,68.19
2017-11-23T07:50:39.969Z,67.91
2017-11-23T07:51:22.557Z,68.29
2017-11-23T07:52:02.529Z,68
2017-11-23T07:52:43.517Z,68.1
2017-11-23T07:53:25.624Z,68.1
2017-11-23T07:54:06.231Z,67.62
2017-11-23T07:54:46.828Z,67.91
2017-11-23T07:55:28.099Z,67.24
2017-11-23T07:56:09.845Z,67.08
2017-11-23T07:56:50.291Z,66.85
2017-11-23T07:57:31.097Z,66.95
2017-11-23T07:58:18.960Z,66.79
2017-11-23T07:59:00.006Z,67.05
2017-11-23T07:59:40.850Z,66.66
2017-11-23T08:00:21.637Z,67.14
2017-11-23T08:01:02.972Z,66.6
2017-11-23T08:01:43.429Z,66.31
2017-11-23T08:02:24.368Z,66.03
2017-11-23T08:03:06.126Z,66.5
2017-11-23T08:03:47.223Z,66.22
2017-11-23T08:04:28.283Z,66.6
2017-11-23T08:05:08.732Z,66.41
2017-11-23T08:05:49.987Z,66.13
2017-11-23T08:06:30.451Z,66.31
2017-11-23T08:07:11.349Z,66.89
2017-11-23T08:07:51.779Z,66.79
2017-11-23T08:08:36.078Z,66.89
2017-11-23T08:09:14.359Z,66.5
2017-11-23T08:09:54.881Z,67.08
2017-11-23T08:10:37.056Z,66.41
2017-11-23T08:11:16.893Z,66.41
2017-11-23T08:11:58.479Z,66.41
2017-11-23T08:12:40.056Z,65.93
2017-11-23T08:13:20.206Z,65.68
2017-11-23T08:14:00.833Z,65.17
2017-11-23T08:14:42.625Z,65.48
2017-11-23T08:15:23.088Z,65.48
2017-11-23T08:16:04.209Z,65.11
2017-11-23T08:16:44.574Z,65.11
2017-11-23T08:17:25.012Z,65.11
2017-11-23T08:18:05.414Z,65.01
2017-11-23T08:18:46.751Z,65.01
2017-11-23T08:19:26.702Z,64.91
2017-11-23T08:20:07.363Z,64.82
2017-11-23T08:20:48.820Z,65.01
2017-11-23T08:21:28.992Z,64.95
2017-11-23T08:22:10.190Z,64.09
2017-11-23T08:22:50.603Z,63.8
2017-11-23T08:23:31.377Z,63.32
2017-11-23T08:24:14.060Z,63.42
2017-11-23T08:24:54.308Z,62.84
2017-11-23T08:25:34.910Z,62.84
2017-11-23T08:26:15.582Z,63.03
2017-11-23T08:26:56.134Z,62.59
2017-11-23T08:27:36.896Z,62.68
2017-11-23T08:28:18.450Z,62.59
2017-11-23T08:28:59.152Z,62.4
2017-11-23T08:29:39.877Z,62.59
2017-11-23T08:30:21.036Z,62.11
2017-11-23T08:31:02.061Z,62.01
2017-11-23T08:31:41.797Z,61.25
2017-11-23T08:32:22.307Z,61.44
2017-11-23T08:33:02.869Z,61.44
2017-11-23T08:33:43.277Z,61.63
2017-11-23T08:34:24.799Z,61.15
2017-11-23T08:35:05.079Z,60.86
2017-11-23T08:35:45.875Z,61.15
2017-11-23T08:36:26.628Z,61.05
2017-11-23T08:37:06.964Z,61.28
2017-11-23T08:37:47.432Z,60.51
2017-11-23T08:38:27.786Z,60.41
2017-11-23T08:39:08.265Z,59.94
2017-11-23T08:39:48.724Z,60.22
2017-11-23T08:40:29.181Z,60.51
2017-11-23T08:41:09.594Z,60.41
2017-11-23T08:41:50.076Z,60.61
2017-11-23T08:42:32.414Z,60.32
2017-11-23T08:43:12.929Z,60.7
2017-11-23T08:43:53.442Z,60.61
2017-11-23T08:44:33.653Z,59.68
2017-11-23T08:45:14.106Z,59.68
2017-11-23T08:45:55.273Z,59.77
2017-11-23T08:46:36.314Z,59.01
2017-11-23T08:47:16.667Z,58.62
2017-11-23T08:47:57.037Z,58.62
2017-11-23T08:50:56.041Z,56.54
2017-11-23T08:51:37.330Z,56.35
2017-11-23T08:52:17.744Z,55.97
2017-11-23T08:53:10.792Z,55.13
2017-11-23T08:53:51.146Z,55.52
2017-11-23T08:54:31.692Z,55.62
2017-11-23T08:55:12.027Z,55.71
2017-11-23T08:55:52.661Z,55.13
2017-11-23T08:56:35.481Z,54.94
2017-11-23T08:57:15.856Z,55.3
2017-11-23T08:57:56.369Z,55.49
2017-11-23T08:58:36.897Z,55.49
2017-11-23T08:59:18.223Z,55.49
2017-11-23T08:59:58.091Z,55.58
2017-11-23T09:00:38.628Z,55.58
2017-11-23T09:01:19.087Z,56.54
2017-11-23T09:02:00.040Z,56.64
2017-11-23T09:02:40.515Z,56.64
2017-11-23T09:03:21.512Z,56.35
2017-11-23T09:04:02.224Z,56.26
2017-11-23T09:04:42.730Z,56.16
2017-11-23T09:05:23.272Z,55.49
2017-11-23T09:06:08.409Z,55.62
2017-11-23T09:06:53.735Z,55.04
2017-11-23T09:07:36.403Z,54.56
2017-11-23T09:08:17.617Z,54.37
2017-11-23T09:08:58.750Z,54.85
2017-11-23T09:09:40.887Z,54.66
2017-11-23T09:10:21.329Z,54.21
2017-11-23T09:11:03.256Z,54.97
2017-11-23T09:11:46.851Z,54.68
2017-11-23T09:12:29.828Z,53.34
2017-11-23T09:13:09.633Z,53.15
2017-11-23T09:13:50.492Z,53.15
2017-11-23T09:14:32.244Z,53.56
2017-11-23T09:15:15.941Z,53.56
2017-11-23T09:15:57.600Z,53.17
2017-11-23T09:16:38.237Z,52.72
2017-11-23T09:17:21.732Z,52.02
2017-11-23T09:18:06.582Z,52.4
2017-11-23T09:18:47.863Z,52.6
2017-11-23T09:19:28.721Z,52.89
2017-11-23T09:20:12.209Z,52.6
2017-11-23T09:20:52.755Z,52.34
2017-11-23T09:21:36.961Z,52.14
2017-11-23T09:22:18.122Z,51.57
2017-11-23T09:23:41.488Z,51.28
2017-11-23T09:24:21.402Z,51.57
2017-11-23T09:25:02.034Z,51.95
2017-11-23T09:25:46.928Z,52.12
2017-11-23T09:26:32.499Z,52.4
2017-11-23T09:27:21.810Z,52.62
2017-11-23T09:28:13.443Z,52.34
2017-11-23T09:29:57.124Z,51.37
2017-11-23T09:30:39.336Z,52.31
2017-11-23T09:32:32.438Z,51.28
2017-11-23T09:34:18.944Z,51.37
2017-11-23T09:36:35.088Z,50.7
2017-11-23T09:37:15.652Z,51.28
2017-11-23T09:37:57.026Z,51.37
2017-11-23T09:38:37.531Z,50.8
2017-11-23T09:39:18.510Z,50.9
2017-11-23T09:39:59.103Z,50.7
2017-11-23T09:40:40.177Z,50.54
2017-11-23T09:41:20.172Z,50.44
2017-11-23T09:42:01.074Z,50.7
2017-11-23T09:42:41.537Z,50.82
2017-11-23T09:43:22.926Z,50.9
2017-11-23T09:44:03.388Z,51.67
2017-11-23T09:44:45.281Z,51.57
2017-11-23T09:45:29.483Z,51.37
2017-11-23T09:46:09.517Z,51.18
2017-11-23T09:46:50.359Z,52.14
2017-11-23T09:47:31.751Z,51.28
2017-11-23T09:48:17.245Z,51.02
2017-11-23T09:48:57.628Z,51.37
2017-11-23T09:49:38.893Z,52.05
2017-11-23T09:50:20.392Z,52.53
2017-11-23T09:51:02.163Z,52.24
2017-11-23T09:51:44.483Z,51.86
2017-11-23T09:52:25.563Z,51.95
2017-11-23T09:53:07.369Z,51.28
2017-11-23T09:53:47.933Z,51.47
2017-11-23T09:54:28.465Z,51.37